Time;durP1;ratioP1;P1;durP2;ratioP2;P2;SDS_P1;SDS_P2;PMS_P1;PMS_P2;Temp;Humidity;BMP_temperature;BMP_pressure;BME280_temperature;BME280_humidity;BME280_pressure;Samples;Min_cycle;Max_cycle;Signal;HPM_P1;HPM_P2
2022/02/02 00:01:03;;;;;;;7.18;1.88;;;;;;;-145.06;0.00;60892.56;4882473;28;20041;-89
2022/02/02 00:03:48;;;;;;;8.13;1.90;;;;;;;9.02;0.00;60892.56;4854740;28;20464;-88
2022/02/02 00:06:36;;;;;;;9.68;2.35;;;;;;;-145.06;0.00;60892.56;4854281;28;20037;-89
2022/02/02 00:09:17;;;;;;;9.77;2.30;;;;;;;9.01;0.00;60892.56;4849813;28;20072;-89
2022/02/02 00:18:19;;;;;;;8.63;2.10;;;;;;;-145.06;0.00;60892.56;4843254;28;20037;-88
2022/02/02 00:21:04;;;;;;;8.43;1.92;;;;;;;-145.06;0.00;60892.56;4850922;28;20037;-89
2022/02/02 00:23:44;;;;;;;9.60;2.35;;;;;;;-145.06;0.00;60892.56;4857665;28;20372;-88
2022/02/02 00:26:29;;;;;;;10.82;2.47;;;;;;;-145.06;0.00;60892.56;4857499;28;20033;-89
2022/02/02 00:29:14;;;;;;;14.98;2.70;;;;;;;-145.06;0.00;60892.56;4857852;28;20116;-87
2022/02/02 00:32:02;;;;;;;12.63;2.50;;;;;;;-145.06;0.00;60892.56;4857555;28;20494;-89
2022/02/02 00:34:42;;;;;;;8.88;2.47;;;;;;;-145.06;0.00;60892.56;4853078;28;20025;-89
2022/02/02 00:37:21;;;;;;;5.85;1.83;;;;;;;-145.06;0.00;60892.56;4866337;28;20029;-89
2022/02/02 00:40:00;;;;;;;9.02;2.35;;;;;;;9.02;0.00;60892.56;4863454;28;20400;-89
2022/02/02 00:42:39;;;;;;;8.67;2.30;;;;;;;9.04;0.00;60892.56;4884916;28;20625;-88
2022/02/02 00:45:18;;;;;;;6.87;1.97;;;;;;;-145.06;0.00;60892.56;4882246;28;20116;-89
2022/02/02 00:47:59;;;;;;;10.85;2.25;;;;;;;-145.06;0.00;60892.56;4857806;28;20041;-89
2022/02/02 00:50:38;;;;;;;9.93;2.17;;;;;;;-145.06;0.00;60892.56;4858949;28;20037;-89
2022/02/02 00:53:17;;;;;;;10.13;2.70;;;;;;;-145.06;0.00;60892.56;4884801;28;20084;-89
2022/02/02 00:55:56;;;;;;;6.55;1.85;;;;;;;-145.06;0.00;60892.56;4907224;28;20045;-89
2022/02/02 00:58:36;;;;;;;;;;;;;;;-145.06;0.00;60892.56;4886406;28;20041;-87
2022/02/02 01:01:15;;;;;;;6.63;1.70;;;;;;;-145.06;0.00;60892.56;4849695;28;19916;-88
2022/02/02 01:03:54;;;;;;;7.43;2.22;;;;;;;-145.06;0.00;60892.56;4851343;28;20037;-89
2022/02/02 01:06:38;;;;;;;8.90;2.20;;;;;;;-145.06;0.00;60892.56;4885154;28;20597;-89
2022/02/02 01:09:25;;;;;;;12.45;2.67;;;;;;;-145.06;0.00;60892.56;4863055;28;20100;-88
2022/02/02 01:12:30;;;;;;;9.10;1.88;;;;;;;-145.06;0.00;60892.56;4858050;28;20040;-89
2022/02/02 01:20:40;;;;;;;9.33;2.10;;;;;;;-145.06;0.00;60892.56;4857178;28;20026;-89
2022/02/02 01:29:00;;;;;;;8.98;2.38;;;;;;;-145.06;0.00;60892.56;4853144;28;20090;-89
2022/02/02 01:31:39;;;;;;;6.28;2.22;;;;;;;-145.06;0.00;60892.56;4878827;28;20025;-89
2022/02/02 01:34:18;;;;;;;8.32;2.38;;;;;;;-145.06;0.00;60892.56;4856358;28;20104;-89
2022/02/02 01:36:57;;;;;;;11.98;2.40;;;;;;;-145.06;0.00;60892.56;4885127;28;20037;-89
2022/02/02 01:39:37;;;;;;;7.00;1.93;;;;;;;-145.06;0.00;60892.56;4883317;28;20037;-89
2022/02/02 01:42:18;;;;;;;;;;;;;;;-145.06;0.00;60892.56;4884614;28;20292;-88
2022/02/02 01:45:06;;;;;;;12.70;2.60;;;;;;;-145.06;0.00;60892.56;4860220;28;19912;-89
2022/02/02 01:54:16;;;;;;;7.88;2.03;;;;;;;-145.06;0.00;60892.56;4859706;28;20025;-89
2022/02/02 01:56:42;;;;;;;10.48;2.05;;;;;;;-145.06;0.00;60892.56;4856490;28;20030;-88
2022/02/02 01:59:39;;;;;;;13.90;3.17;;;;;;;-145.06;0.00;60892.56;4855135;28;20041;-89
2022/02/02 02:02:19;;;;;;;9.13;2.50;;;;;;;-145.06;0.00;60892.56;4873470;28;20474;-88
2022/02/02 02:04:58;;;;;;;10.80;2.50;;;;;;;-145.06;0.00;60892.56;4856741;28;20025;-89
2022/02/02 02:07:37;;;;;;;7.70;2.20;;;;;;;-145.06;0.00;60892.56;4883643;28;20029;-89
2022/02/02 02:10:16;;;;;;;6.90;2.23;;;;;;;-145.06;0.00;60892.56;4854383;28;20037;-88
2022/02/02 02:13:01;;;;;;;13.43;2.07;;;;;;;-145.06;0.00;60892.56;4859217;28;20033;-89
2022/02/02 02:15:42;;;;;;;8.57;2.20;;;;;;;-145.06;0.00;60892.56;4859951;28;20037;-89
2022/02/02 02:18:21;;;;;;;13.02;2.55;;;;;;;-145.06;0.00;60892.56;4882311;28;20029;-89
2022/02/02 02:21:01;;;;;;;8.43;2.55;;;;;;;-145.06;0.00;60892.56;4884247;28;20472;-88
2022/02/02 02:23:41;;;;;;;11.18;2.25;;;;;;;-145.06;0.00;60892.56;4882862;28;20045;-89
2022/02/02 02:26:25;;;;;;;9.55;2.50;;;;;;;-145.06;0.00;60892.56;4856979;28;20487;-88
2022/02/02 02:29:19;;;;;;;7.28;2.38;;;;;;;-145.06;0.00;60892.56;4854552;28;20755;-88
2022/02/02 02:40:23;;;;;;;7.38;1.65;;;;;;;-145.06;0.00;60892.56;4853405;28;20033;-88
2022/02/02 03:01:31;;;;;;;8.90;2.33;;;;;;;-145.06;0.00;60892.56;4925805;28;20107;-87
2022/02/02 03:31:10;;;;;;;14.88;3.00;;;;;;;-145.06;0.00;60892.56;4920860;28;20028;-88
2022/02/02 03:49:26;;;;;;;16.38;3.03;;;;;;;-145.06;0.00;60892.56;4915394;28;20035;-88
2022/02/02 03:52:22;;;;;;;8.85;2.35;;;;;;;-145.06;0.00;60892.56;4920916;28;20393;-88
2022/02/02 03:54:57;;;;;;;7.20;2.10;;;;;;;-145.06;0.00;60892.56;4922739;28;20032;-87
2022/02/02 04:06:07;;;;;;;7.88;2.08;;;;;;;-145.06;0.00;60892.56;4897022;28;20028;-88
2022/02/02 04:08:47;;;;;;;8.07;1.85;;;;;;;-145.06;0.00;60892.56;4906669;28;20044;-88
2022/02/02 04:11:45;;;;;;;;;;;;;;;-145.06;0.00;60892.56;4900538;28;20044;-89
2022/02/02 04:37:41;;;;;;;10.85;2.22;;;;;;;-145.06;0.00;60892.56;4898188;28;20119;-88
2022/02/02 04:55:42;;;;;;;9.43;2.60;;;;;;;10.68;0.00;60892.56;4905985;28;20028;-88
2022/02/02 04:58:38;;;;;;;9.18;2.50;;;;;;;-145.06;0.00;60892.56;4904062;28;20024;-89
2022/02/02 05:07:03;;;;;;;9.93;2.88;;;;;;;-145.06;0.00;60892.56;4910858;28;20060;-87
2022/02/02 05:18:40;;;;;;;10.13;2.65;;;;;;;-145.06;0.00;60892.56;4916655;28;20028;-89
2022/02/02 05:21:48;;;;;;;8.95;2.35;;;;;;;-145.06;0.00;60892.56;4899632;28;20103;-88
2022/02/02 05:53:52;;;;;;;12.43;2.67;;;;;;;-145.06;0.00;60892.56;4909159;28;20024;-89
2022/02/02 05:56:39;;;;;;;7.73;1.90;;;;;;;-145.06;0.00;60892.56;4914107;28;20382;-87
2022/02/02 05:59:24;;;;;;;5.40;1.83;;;;;;;-145.06;0.00;60892.56;4909473;28;20028;-88
2022/02/02 06:02:04;;;;;;;7.40;1.90;;;;;;;-145.06;0.00;60892.56;4894316;28;20032;-89
2022/02/02 06:04:47;;;;;;;8.93;2.05;;;;;;;-145.06;0.00;60892.56;4894929;28;20056;-89
2022/02/02 06:07:27;;;;;;;7.50;2.13;;;;;;;-145.06;0.00;60892.56;4908252;28;20080;-88
2022/02/02 06:10:07;;;;;;;;;;;;;;;-145.06;0.00;60892.56;4906516;28;20031;-88
2022/02/02 06:12:47;;;;;;;8.73;2.15;;;;;;;-145.06;0.00;60892.56;4918364;28;19912;-89
2022/02/02 06:15:26;;;;;;;11.73;2.70;;;;;;;-145.06;0.00;60892.56;4904477;28;20028;-88
2022/02/02 06:18:06;;;;;;;10.88;2.10;;;;;;;-145.06;0.00;60892.56;4911356;28;20114;-89
2022/02/02 06:20:54;;;;;;;10.25;2.70;;;;;;;-145.06;0.00;60892.56;4904996;28;20646;-89
2022/02/02 06:23:58;;;;;;;7.20;2.60;;;;;;;187.52;0.00;60892.56;4900867;28;20037;-87
2022/02/02 06:26:39;;;;;;;6.78;1.98;;;;;;;-145.06;0.00;60892.56;4901500;28;20028;-89
2022/02/02 06:29:18;;;;;;;6.30;2.13;;;;;;;-145.06;0.00;60892.56;4913214;28;20071;-89
2022/02/02 06:32:01;;;;;;;9.43;2.50;;;;;;;-145.06;0.00;60892.56;4910240;28;20024;-88
2022/02/02 06:34:53;;;;;;;11.40;2.30;;;;;;;-145.06;0.00;60892.56;4898924;28;20024;-89
2022/02/02 06:37:32;;;;;;;8.38;1.90;;;;;;;-145.06;0.00;60892.56;4914442;28;20020;-89
2022/02/02 06:40:13;;;;;;;8.20;2.40;;;;;;;-145.06;0.00;60892.56;4919478;28;20765;-89
2022/02/02 06:42:52;;;;;;;12.75;2.72;;;;;;;-145.06;0.00;60892.56;4908361;28;20366;-89
2022/02/02 06:45:32;;;;;;;13.80;2.78;;;;;;;-145.06;0.00;60892.56;4904873;28;20033;-90
2022/02/02 06:48:11;;;;;;;8.48;2.42;;;;;;;-145.06;0.00;60892.56;4907875;28;20127;-90
2022/02/02 06:51:01;;;;;;;11.70;2.63;;;;;;;-145.06;0.00;60892.56;4902402;28;20028;-90
2022/02/02 06:53:55;;;;;;;6.85;2.00;;;;;;;-145.06;0.00;60892.56;4904781;28;20114;-90
2022/02/02 06:56:52;;;;;;;12.57;3.00;;;;;;;-145.06;0.00;60892.56;4901943;28;20036;-89
2022/02/02 06:59:56;;;;;;;6.15;2.17;;;;;;;-145.06;0.00;60892.56;4899314;28;20485;-90
2022/02/02 07:02:58;;;;;;;12.60;2.50;;;;;;;-145.06;0.00;60892.56;4898881;28;20131;-89
2022/02/02 07:06:32;;;;;;;7.63;2.17;;;;;;;-145.06;0.00;60892.56;4897938;28;20063;-89
2022/02/02 07:08:59;;;;;;;9.70;2.45;;;;;;;-145.06;0.00;60892.56;4897723;28;20043;-89
2022/02/02 07:15:14;;;;;;;11.60;2.58;;;;;;;-145.06;0.00;60892.56;4903376;28;20028;-89
2022/02/02 07:20:52;;;;;;;8.27;2.10;;;;;;;-145.06;0.00;60892.56;4901678;28;20029;-90
2022/02/02 07:23:51;;;;;;;10.95;2.30;;;;;;;-145.06;0.00;60892.56;4908058;28;20040;-89
2022/02/02 07:29:20;;;;;;;8.73;2.38;;;;;;;-145.06;0.00;60892.56;4911969;28;20044;-90
2022/02/02 07:32:17;;;;;;;9.55;2.08;;;;;;;-145.06;0.00;60892.56;4905450;28;20115;-89
2022/02/02 07:35:13;;;;;;;10.60;2.30;;;;;;;-145.06;0.00;60892.56;4908022;28;20016;-89
2022/02/02 07:38:03;;;;;;;9.77;2.30;;;;;;;-145.06;0.00;60892.56;4917191;28;20434;-89
2022/02/02 07:40:46;;;;;;;11.50;2.28;;;;;;;-145.06;0.00;60892.56;4917157;28;20028;-90
2022/02/02 07:43:30;;;;;;;8.15;2.30;;;;;;;-145.06;0.00;60892.56;4917832;28;20115;-90
2022/02/02 07:46:10;;;;;;;5.25;1.70;;;;;;;-145.06;0.00;60892.56;4916764;28;20032;-90
2022/02/02 07:48:50;;;;;;;6.07;1.88;;;;;;;-145.06;0.00;60892.56;4918123;28;20035;-90
2022/02/02 07:51:31;;;;;;;5.25;1.75;;;;;;;-145.06;0.00;60892.56;4916940;28;20048;-90
2022/02/02 07:54:18;;;;;;;7.20;1.73;;;;;;;-145.06;0.00;60892.56;4917225;28;20028;-89
2022/02/02 07:56:58;;;;;;;6.85;1.73;;;;;;;-145.06;0.00;60892.56;4933477;28;20043;-88
2022/02/02 08:02:38;;;;;;;7.63;1.85;;;;;;;-145.06;0.00;60892.56;4937649;28;20051;-90
2022/02/02 08:05:18;;;;;;;6.80;2.20;;;;;;;-145.06;0.00;60892.56;4911208;28;20029;-90
2022/02/02 08:10:38;;;;;;;8.90;2.42;;;;;;;187.52;0.00;60892.56;4897623;28;20107;-89
2022/02/02 08:13:22;;;;;;;;;;;;;;;;;;;;;
2022/02/02 08:16:00;;;;;;;5.78;1.70;;;;;;;-145.06;0.00;60892.56;4925351;28;20012;-90
2022/02/02 08:18:44;;;;;;;8.13;2.15;;;;;;;-145.06;0.00;60892.56;4917662;28;20497;-90
2022/02/02 08:21:23;;;;;;;13.43;3.25;;;;;;;-145.06;0.00;60892.56;4917487;28;20032;-89
2022/02/02 08:24:02;;;;;;;7.93;2.17;;;;;;;-145.06;0.00;60892.56;4910233;28;20477;-90
2022/02/02 08:26:41;;;;;;;7.13;1.83;;;;;;;-145.06;0.00;60892.56;4912990;28;20362;-90
2022/02/02 08:29:22;;;;;;;10.60;2.20;;;;;;;-145.06;0.00;60892.56;4917368;28;20048;-90
2022/02/02 08:32:02;;;;;;;4.60;1.92;;;;;;;-145.06;0.00;60892.56;4927723;28;20031;-90
2022/02/02 08:34:47;;;;;;;6.75;1.80;;;;;;;-145.06;0.00;60892.56;4915555;28;20024;-90
2022/02/02 08:37:32;;;;;;;8.13;1.95;;;;;;;-145.06;0.00;60892.56;4916220;28;20028;-89
2022/02/02 08:40:32;;;;;;;10.98;2.40;;;;;;;-145.06;0.00;60892.56;4908599;28;20028;-89
2022/02/02 08:43:17;;;;;;;7.55;2.50;;;;;;;-145.06;0.00;60892.56;4915856;28;20027;-90
2022/02/02 08:46:03;;;;;;;6.35;2.03;;;;;;;-145.06;0.00;60892.56;4916170;28;20493;-90
2022/02/02 08:48:44;;;;;;;6.95;2.13;;;;;;;-145.06;0.00;60892.56;4917125;28;20032;-90
2022/02/02 08:51:27;;;;;;;10.20;2.45;;;;;;;8.68;0.00;60892.56;4916283;28;20044;-90
2022/02/02 08:54:18;;;;;;;7.45;2.40;;;;;;;-145.06;0.00;60892.56;4915002;28;20032;-90
2022/02/02 08:59:53;;;;;;;7.07;1.88;;;;;;;-145.06;0.00;60892.56;4908063;28;20028;-90
2022/02/02 09:02:34;;;;;;;6.55;2.10;;;;;;;-145.06;0.00;60892.56;4935215;28;20031;-89
2022/02/02 09:05:21;;;;;;;7.13;1.98;;;;;;;-145.06;0.00;60892.56;4918521;28;20024;-89
2022/02/02 09:08:03;;;;;;;7.07;2.28;;;;;;;-145.06;0.00;60892.56;4915390;28;20028;-90
2022/02/02 09:25:22;;;;;;;8.27;2.38;;;;;;;-145.06;0.00;60892.56;4915556;28;20024;-89
2022/02/02 09:34:02;;;;;;;7.80;2.17;;;;;;;-145.06;0.00;60892.56;4901804;28;20060;-89
2022/02/02 09:36:44;;;;;;;11.05;2.88;;;;;;;-145.06;0.00;60892.56;4916347;28;20028;-89
2022/02/02 09:39:31;;;;;;;12.55;2.80;;;;;;;-145.06;0.00;60892.56;4908678;28;20036;-89
2022/02/02 09:42:16;;;;;;;9.82;2.58;;;;;;;-145.06;0.00;60892.56;4917976;28;20028;-89
2022/02/02 09:44:57;;;;;;;8.98;2.30;;;;;;;-145.06;0.00;60892.56;4918966;28;20024;-89
2022/02/02 09:47:46;;;;;;;6.20;2.15;;;;;;;-145.06;0.00;60892.56;4915713;28;20040;-89
2022/02/02 09:50:35;;;;;;;9.85;2.63;;;;;;;-145.06;0.00;60892.56;4903802;28;20362;-89
2022/02/02 09:53:33;;;;;;;5.68;2.15;;;;;;;-145.06;0.00;60892.56;4913814;28;20095;-88
2022/02/02 09:56:44;;;;;;;6.38;1.58;;;;;;;-145.06;0.00;60892.56;4922825;28;20016;-89
2022/02/02 09:59:48;;;;;;;7.50;2.13;;;;;;;-145.06;0.00;60892.56;4911234;28;20028;-90
2022/02/02 10:08:08;;;;;;;7.15;1.83;;;;;;;9.50;0.00;60892.56;4896024;28;20494;-89
2022/02/02 10:10:55;;;;;;;10.65;2.65;;;;;;;-145.06;0.00;60892.56;4908189;28;20028;-90
2022/02/02 10:13:52;;;;;;;10.68;2.72;;;;;;;-145.06;0.00;60892.56;4912577;28;20488;-88
2022/02/02 10:16:42;;;;;;;8.32;2.65;;;;;;;-145.06;0.00;60892.56;4923127;28;20032;-90
2022/02/02 10:19:23;;;;;;;10.50;2.20;;;;;;;-145.06;0.00;60892.56;4915407;28;20031;-89
2022/02/02 10:22:23;;;;;;;7.68;2.28;;;;;;;-145.06;0.00;60892.56;4913511;28;20024;-89
2022/02/02 10:25:04;;;;;;;7.20;2.22;;;;;;;-145.06;0.00;60892.56;4924857;28;20505;-89
2022/02/02 10:27:44;;;;;;;9.40;2.40;;;;;;;-145.06;0.00;60892.56;4895541;28;20048;-88
2022/02/02 10:30:22;;;;;;;;;;;;;;;-145.06;0.00;60892.56;4913091;28;20035;-89
2022/02/02 10:33:04;;;;;;;6.30;2.00;;;;;;;-145.06;0.00;60892.56;4922548;28;19908;-90
2022/02/02 10:35:49;;;;;;;5.43;2.30;;;;;;;-145.06;0.00;60892.56;4911313;28;20036;-89
2022/02/02 10:38:46;;;;;;;8.50;2.17;;;;;;;-145.06;0.00;60892.56;4914255;28;20466;-89
2022/02/02 10:41:30;;;;;;;8.02;2.10;;;;;;;-145.06;0.00;60892.56;4911444;28;20024;-89
2022/02/02 10:44:25;;;;;;;4.25;1.75;;;;;;;187.52;0.00;60892.56;4913983;28;20115;-89
2022/02/02 10:47:29;;;;;;;7.35;2.08;;;;;;;-145.06;0.00;60892.56;4920478;28;20071;-90
2022/02/02 10:50:28;;;;;;;5.53;2.00;;;;;;;-145.06;0.00;60892.56;4914223;28;20040;-89
2022/02/02 10:53:27;;;;;;;7.77;2.20;;;;;;;-145.06;0.00;60892.56;4914360;28;20028;-89
2022/02/02 11:01:51;;;;;;;8.07;1.90;;;;;;;-145.06;0.00;60892.56;4920312;28;20024;-89
2022/02/02 11:07:34;;;;;;;5.63;1.75;;;;;;;-145.06;0.00;60892.56;4935331;28;20047;-89
2022/02/02 11:10:14;;;;;;;9.18;2.15;;;;;;;10.60;0.00;60892.56;4929429;28;20032;-89
2022/02/02 11:12:54;;;;;;;5.18;1.60;;;;;;;-145.06;0.00;60892.56;4917753;28;20028;-89
2022/02/02 11:15:48;;;;;;;5.43;2.10;;;;;;;-145.06;0.00;60892.56;4917424;28;20366;-89
2022/02/02 11:18:41;;;;;;;13.18;2.10;;;;;;;-145.06;0.00;60892.56;4913385;28;20028;-90
2022/02/02 11:21:30;;;;;;;4.93;1.88;;;;;;;10.60;0.00;60892.56;4909699;28;20036;-89
2022/02/02 11:24:17;;;;;;;6.10;1.92;;;;;;;10.57;0.00;60892.56;4898672;28;20058;-89
2022/02/02 11:26:57;;;;;;;5.07;1.88;;;;;;;-145.06;0.00;60892.56;4899024;28;20104;-89
2022/02/02 11:29:43;;;;;;;8.07;2.37;;;;;;;10.60;0.00;60892.56;4923128;28;20016;-89
2022/02/02 11:32:22;;;;;;;8.02;2.15;;;;;;;-145.06;0.00;60892.56;4942392;28;20290;-89
2022/02/02 11:38:27;;;;;;;9.13;2.05;;;;;;;-145.06;0.00;60892.56;4918529;28;20028;-89
2022/02/02 11:44:16;;;;;;;6.72;2.55;;;;;;;-145.06;0.00;60892.56;4913864;28;20648;-89
2022/02/02 11:49:57;;;;;;;3.30;1.55;;;;;;;-145.06;0.00;60892.56;4909452;28;20025;-90
2022/02/02 11:52:46;;;;;;;6.70;2.22;;;;;;;-145.06;0.00;60892.56;4897870;28;20470;-89
2022/02/02 11:55:31;;;;;;;5.25;2.00;;;;;;;-145.06;0.00;60892.56;4908406;28;20493;-89
2022/02/02 11:58:26;;;;;;;5.43;2.03;;;;;;;-145.06;0.00;60892.56;4917169;28;20036;-90
2022/02/02 12:09:55;;;;;;;8.30;2.53;;;;;;;-145.06;0.00;60892.56;4889224;28;20486;-89
2022/02/02 12:27:51;;;;;;;5.43;2.05;;;;;;;-145.06;0.00;60892.56;4898507;28;20028;-89
2022/02/02 12:45:35;;;;;;;6.28;2.20;;;;;;;-145.06;0.00;60892.56;4917119;28;20367;-89
2022/02/02 12:48:15;;;;;;;8.88;2.55;;;;;;;-145.06;0.00;60892.56;4918504;28;20036;-90
2022/02/02 12:57:21;;;;;;;5.63;1.80;;;;;;;-145.06;0.00;60892.56;4916860;28;20115;-90
2022/02/02 13:03:07;;;;;;;9.57;2.83;;;;;;;-145.06;0.00;60892.56;4927176;28;20032;-89
2022/02/02 13:05:46;;;;;;;6.93;2.15;;;;;;;10.74;0.00;60892.56;4935946;28;20020;-89
2022/02/02 13:08:25;;;;;;;4.63;2.00;;;;;;;-145.06;0.00;60892.56;4935521;28;20032;-90
2022/02/02 13:11:03;;;;;;;5.07;1.80;;;;;;;-145.06;0.00;60892.56;4935916;28;20062;-88
2022/02/02 13:13:47;;;;;;;9.23;2.40;;;;;;;-145.06;0.00;60892.56;4920054;28;20641;-87
2022/02/02 13:16:28;;;;;;;5.88;1.98;;;;;;;-145.06;0.00;60892.56;4915949;28;20058;-90
2022/02/02 13:19:15;;;;;;;4.80;1.73;;;;;;;-145.06;0.00;60892.56;4915853;28;20032;-90
2022/02/02 13:22:10;;;;;;;6.70;1.83;;;;;;;-145.06;0.00;60892.56;4901706;28;20485;-91
2022/02/02 13:24:49;;;;;;;4.65;2.03;;;;;;;-145.06;0.00;60892.56;4909357;28;20036;-88
2022/02/02 13:27:32;;;;;;;4.18;1.92;;;;;;;10.76;0.00;60892.56;4906156;28;20041;-89
2022/02/02 13:30:48;;;;;;;3.55;1.60;;;;;;;-145.06;0.00;60892.56;4895314;28;20033;-90
2022/02/02 13:33:35;;;;;;;4.30;1.50;;;;;;;-145.06;0.00;60892.56;4914477;28;20366;-89
2022/02/02 13:45:12;;;;;;;5.10;2.05;;;;;;;-145.06;0.00;60892.56;4921701;28;20036;-89
2022/02/02 13:51:10;;;;;;;10.37;2.43;;;;;;;-145.06;0.00;60892.56;4896326;28;20028;-89
2022/02/02 13:54:00;;;;;;;6.97;1.85;;;;;;;-145.06;0.00;60892.56;4898375;28;20024;-90
2022/02/02 14:11:51;;;;;;;6.10;1.70;;;;;;;10.85;0.00;60892.56;4912740;28;20521;-91
2022/02/02 14:31:04;;;;;;;4.45;1.48;;;;;;;-145.06;0.00;60892.56;4904618;28;20020;-90
2022/02/02 14:32:04;;;;;;;3.42;1.50;;;;;;;-145.06;0.00;60892.56;4894579;28;20036;-89
2022/02/02 14:34:43;;;;;;;5.53;1.63;;;;;;;-145.06;0.00;60892.56;4919272;28;20019;-90
2022/02/02 14:37:29;;;;;;;3.97;1.73;;;;;;;-145.06;0.00;60892.56;4909684;28;20274;-90
2022/02/02 14:43:26;;;;;;;6.53;1.85;;;;;;;-145.06;0.00;60892.56;4906762;28;20036;-88
2022/02/02 14:46:09;;;;;;;3.63;1.30;;;;;;;-145.06;0.00;60892.56;4903306;28;20032;-90
2022/02/02 14:48:55;;;;;;;3.83;1.52;;;;;;;11.33;0.00;60892.56;4911485;28;20123;-89
2022/02/02 14:51:46;;;;;;;4.20;1.50;;;;;;;-145.06;0.00;60892.56;4908465;28;20370;-90
2022/02/02 15:07:12;;;;;;;3.58;1.30;;;;;;;187.52;0.00;60892.56;4915206;28;20028;-90
2022/02/02 15:24:00;;;;;;;4.47;1.52;;;;;;;-145.06;0.00;60892.56;4901763;28;20107;-89
2022/02/02 15:32:16;;;;;;;4.20;1.50;;;;;;;10.58;0.00;60892.56;4904308;28;20040;-89
2022/02/02 15:34:58;;;;;;;3.28;1.25;;;;;;;-145.06;0.00;60892.56;4906817;28;20024;-89
2022/02/02 15:38:26;;;;;;;3.20;1.02;;;;;;;-145.06;0.00;60892.56;4902863;28;20043;-89
2022/02/02 15:40:47;;;;;;;2.65;1.10;;;;;;;-145.06;0.00;60892.56;4901162;28;20027;-89
2022/02/02 16:03:43;;;;;;;2.95;1.40;;;;;;;-145.06;0.00;60892.56;4916004;28;20122;-88
2022/02/02 16:06:25;;;;;;;2.78;1.27;;;;;;;-145.06;0.00;60892.56;4901923;28;20639;-89
2022/02/02 16:09:43;;;;;;;2.95;1.40;;;;;;;10.68;0.00;60892.56;4906674;28;20555;-89
2022/02/02 16:12:32;;;;;;;4.22;1.75;;;;;;;-145.06;0.00;60892.56;4904043;28;20032;-89
2022/02/02 16:38:12;;;;;;;2.30;1.23;;;;;;;-145.06;0.00;60892.56;4918066;28;20469;-89
2022/02/02 16:40:52;;;;;;;4.65;2.05;;;;;;;-145.06;0.00;60892.56;4916780;28;20346;-89
2022/02/02 16:43:32;;;;;;;2.72;1.67;;;;;;;-145.06;0.00;60892.56;4919436;28;20028;-90
2022/02/02 16:46:11;;;;;;;1.83;1.27;;;;;;;-145.06;0.00;60892.56;4909095;28;20028;-89
2022/02/02 16:48:50;;;;;;;2.43;1.30;;;;;;;-145.06;0.00;60892.56;4905485;28;20032;-90
2022/02/02 16:51:29;;;;;;;2.03;1.30;;;;;;;-145.06;0.00;60892.56;4912279;28;20270;-89
2022/02/02 16:54:15;;;;;;;2.90;1.42;;;;;;;-145.06;0.00;60892.56;4908370;28;20370;-90
2022/02/02 16:57:10;;;;;;;1.88;1.25;;;;;;;-145.06;0.00;60892.56;4910724;28;20028;-89
2022/02/02 17:44:02;;;;;;;2.67;1.23;;;;;;;-145.06;0.00;60892.56;4910197;28;20028;-89
2022/02/02 18:20:56;;;;;;;3.00;2.67;;;;;;;-145.06;0.00;60892.56;4908569;28;20462;-89
2022/02/02 18:29:03;;;;;;;2.90;2.60;;;;;;;-145.06;0.00;60892.56;4915156;28;20036;-88
2022/02/02 18:34:43;;;;;;;4.32;3.42;;;;;;;9.44;0.00;60892.56;4906221;28;20670;-89
2022/02/02 18:42:02;;;;;;;4.60;3.03;;;;;;;-145.06;0.00;60892.56;4910523;28;20031;-89
2022/02/02 20:07:11;;;;;;;2.90;2.45;;;;;;;-145.06;0.00;60892.56;4907776;28;20032;-90
2022/02/02 20:12:37;;;;;;;2.83;2.33;;;;;;;-145.06;0.00;60892.56;4906149;28;20106;-90
2022/02/02 20:15:16;;;;;;;2.80;2.38;;;;;;;-145.06;0.00;60892.56;4911591;28;20375;-89
2022/02/02 20:17:57;;;;;;;3.25;2.72;;;;;;;-145.06;0.00;60892.56;4905738;28;20036;-90
2022/02/02 20:20:40;;;;;;;3.15;2.72;;;;;;;-145.06;0.00;60892.56;4903317;28;20044;-90
2022/02/02 20:23:19;;;;;;;3.30;2.58;;;;;;;-145.06;0.00;60892.56;4905959;28;20036;-90
2022/02/02 20:25:58;;;;;;;3.65;2.75;;;;;;;-145.06;0.00;60892.56;4899613;28;20031;-89
2022/02/02 20:28:37;;;;;;;3.53;2.90;;;;;;;-145.06;0.00;60892.56;4917924;28;20044;-90
2022/02/02 20:31:16;;;;;;;2.90;2.38;;;;;;;-145.06;0.00;60892.56;4906565;28;20043;-90
2022/02/02 20:33:56;;;;;;;3.92;3.10;;;;;;;-145.06;0.00;60892.56;4901256;28;20036;-90
2022/02/02 20:36:39;;;;;;;4.20;2.67;;;;;;;-145.06;0.00;60892.56;4901016;28;20371;-89
2022/02/02 20:39:36;;;;;;;3.35;2.55;;;;;;;-145.06;0.00;60892.56;4900592;28;20040;-89
2022/02/02 20:42:17;;;;;;;3.70;3.03;;;;;;;-145.06;0.00;60892.56;4902237;28;20107;-89
2022/02/02 21:08:36;;;;;;;4.82;3.55;;;;;;;-145.06;0.00;60892.56;4913404;28;20027;-90
2022/02/02 21:11:32;;;;;;;5.10;3.78;;;;;;;-145.06;0.00;60892.56;4904104;28;20036;-89
2022/02/02 21:14:15;;;;;;;5.25;4.05;;;;;;;-145.06;0.00;60892.56;4902916;28;20677;-89
2022/02/02 21:16:54;;;;;;;5.72;4.28;;;;;;;-145.06;0.00;60892.56;4899826;28;20462;-91
2022/02/02 21:19:45;;;;;;;6.97;4.63;;;;;;;-145.06;0.00;60892.56;4909846;28;20035;-90
2022/02/02 21:22:26;;;;;;;5.18;4.05;;;;;;;-145.06;0.00;60892.56;4907837;28;20514;-89
2022/02/02 21:25:19;;;;;;;5.78;4.07;;;;;;;-145.06;0.00;60892.56;4905745;28;20029;-90
2022/02/02 21:28:01;;;;;;;4.93;3.70;;;;;;;-145.06;0.00;60892.56;4896878;28;20028;-89
2022/02/02 21:30:42;;;;;;;4.80;3.53;;;;;;;-145.06;0.00;60892.56;4893472;28;20036;-90
2022/02/02 21:33:21;;;;;;;5.63;4.20;;;;;;;-145.06;0.00;60892.56;4899354;28;20723;-90
2022/02/02 21:36:00;;;;;;;8.40;5.32;;;;;;;-145.06;0.00;60892.56;4908309;28;20044;-90
2022/02/02 21:38:54;;;;;;;6.80;5.20;;;;;;;-145.06;0.00;60892.56;4901717;28;20072;-89
2022/02/02 21:41:37;;;;;;;4.95;3.83;;;;;;;-145.06;0.00;60892.56;4907433;28;20122;-88
2022/02/02 21:44:16;;;;;;;4.70;3.63;;;;;;;-145.06;0.00;60892.56;4908017;28;20032;-88
2022/02/02 21:46:57;;;;;;;4.57;3.80;;;;;;;-145.06;0.00;60892.56;4900268;28;20711;-89
2022/02/02 21:49:36;;;;;;;5.32;4.07;;;;;;;-145.06;0.00;60892.56;4909275;28;20047;-89
2022/02/02 21:52:17;;;;;;;5.65;4.35;;;;;;;-145.06;0.00;60892.56;4898395;28;20629;-89
2022/02/02 21:54:57;;;;;;;5.43;4.13;;;;;;;-145.06;0.00;60892.56;4899698;28;20036;-89
2022/02/02 21:57:37;;;;;;;5.30;4.10;;;;;;;-145.06;0.00;60892.56;4906651;28;20032;-89
2022/02/02 22:00:16;;;;;;;7.13;5.18;;;;;;;-145.06;0.00;60892.56;4910768;28;20052;-89
2022/02/02 22:02:55;;;;;;;5.78;4.35;;;;;;;-145.06;0.00;60892.56;4910552;28;20446;-89
2022/02/02 22:05:35;;;;;;;6.63;5.05;;;;;;;-145.06;0.00;60892.56;4920021;28;20027;-89
2022/02/02 22:08:14;;;;;;;5.93;4.40;;;;;;;-145.06;0.00;60892.56;4915559;28;20028;-88
2022/02/02 22:10:53;;;;;;;4.70;3.55;;;;;;;-145.06;0.00;60892.56;4910296;28;20370;-88
2022/02/02 22:13:41;;;;;;;4.93;4.10;;;;;;;-145.06;0.00;60892.56;4915986;28;20032;-88
2022/02/02 22:16:22;;;;;;;5.35;4.30;;;;;;;-145.06;0.00;60892.56;4910522;28;20037;-88
2022/02/02 22:19:01;;;;;;;5.53;4.22;;;;;;;-145.06;0.00;60892.56;4910480;28;20036;-88
2022/02/02 22:21:40;;;;;;;5.80;4.20;;;;;;;-145.06;0.00;60892.56;4902377;28;20036;-88
2022/02/02 22:24:19;;;;;;;4.00;3.10;;;;;;;-145.06;0.00;60892.56;4914552;28;20441;-87
2022/02/02 22:26:58;;;;;;;3.45;3.05;;;;;;;-145.06;0.00;60892.56;4907521;28;20365;-88
2022/02/02 22:29:37;;;;;;;4.38;3.33;;;;;;;-145.06;0.00;60892.56;4910761;28;20040;-87
2022/02/02 22:32:16;;;;;;;4.63;3.45;;;;;;;-145.06;0.00;60892.56;4923128;28;20114;-88
2022/02/02 22:34:55;;;;;;;3.03;2.67;;;;;;;-145.06;0.00;60892.56;4908692;28;20043;-88
2022/02/02 22:37:34;;;;;;;3.03;2.63;;;;;;;-145.06;0.00;60892.56;4901003;28;20033;-88
2022/02/02 22:40:22;;;;;;;5.43;2.85;;;;;;;-145.06;0.00;60892.56;4908514;28;20036;-88
2022/02/02 22:43:01;;;;;;;3.97;3.15;;;;;;;-145.06;0.00;60892.56;4910815;28;20375;-87
2022/02/02 22:45:44;;;;;;;3.95;3.05;;;;;;;-145.06;0.00;60892.56;4896152;28;20486;-88
2022/02/02 22:48:25;;;;;;;3.50;2.95;;;;;;;-145.06;0.00;60892.56;4910488;28;20036;-88
2022/02/02 22:51:04;;;;;;;3.17;2.80;;;;;;;-145.06;0.00;60892.56;4894107;28;20044;-89
2022/02/02 22:53:44;;;;;;;2.65;2.30;;;;;;;-145.06;0.00;60892.56;4902134;28;20040;-88
2022/02/02 22:56:22;;;;;;;2.50;1.98;;;;;;;-145.06;0.00;60892.56;4904648;28;20028;-88
2022/02/02 22:59:01;;;;;;;3.28;2.75;;;;;;;-145.06;0.00;60892.56;4905466;28;20051;-89
2022/02/02 23:01:42;;;;;;;3.67;2.92;;;;;;;10.04;0.00;60892.56;4909685;28;20477;-89